createdAt,value
2023-05-21T00:02:22.888Z,75.70
2023-05-21T00:04:51.459Z,75.80
2023-05-21T00:07:20.434Z,76.80
2023-05-21T00:09:48.517Z,75.30
2023-05-21T00:12:16.629Z,76.60
2023-05-21T00:14:46.137Z,77.90
2023-05-21T00:17:14.194Z,76.20
2023-05-21T00:19:42.465Z,76.50
2023-05-21T00:22:10.599Z,75.50
2023-05-21T00:24:38.700Z,75.00
2023-05-21T00:27:06.994Z,75.10
2023-05-21T00:29:35.053Z,77.50
2023-05-21T00:32:05.904Z,73.30
2023-05-21T00:34:34.115Z,75.70
2023-05-21T00:37:03.036Z,76.00
2023-05-21T00:39:31.219Z,76.40
2023-05-21T00:42:00.478Z,76.40
2023-05-21T00:44:34.457Z,75.50
2023-05-21T00:47:04.114Z,76.20
2023-05-21T00:49:32.541Z,77.30
2023-05-21T00:52:01.658Z,80.70
2023-05-21T00:54:29.982Z,81.30
2023-05-21T00:56:58.401Z,82.00
2023-05-21T00:59:26.793Z,82.00
2023-05-21T01:01:56.390Z,82.00
2023-05-21T01:04:26.234Z,83.00
2023-05-21T01:06:56.244Z,84.60
2023-05-21T01:09:24.364Z,90.20
2023-05-21T01:11:53.691Z,91.00
2023-05-21T01:14:23.664Z,91.40
2023-05-21T01:16:53.044Z,91.90
2023-05-21T01:19:23.611Z,91.70
2023-05-21T01:21:54.144Z,92.00
2023-05-21T01:24:23.847Z,92.10
2023-05-21T01:26:52.390Z,91.70
2023-05-21T01:29:20.874Z,91.80
2023-05-21T01:31:57.936Z,92.10
2023-05-21T01:42:01.630Z,93.40
2023-05-21T01:44:29.783Z,91.40
2023-05-21T01:46:59.619Z,91.70
2023-05-21T01:49:27.841Z,91.80
2023-05-21T01:54:24.812Z,89.40
2023-05-21T01:56:55.776Z,88.10
2023-05-21T01:59:23.931Z,88.60
2023-05-21T02:01:52.080Z,88.00
2023-05-21T02:04:20.179Z,88.80
2023-05-21T02:06:48.254Z,88.30
2023-05-21T02:09:16.307Z,88.70
2023-05-21T02:11:44.461Z,88.50
2023-05-21T02:14:14.266Z,87.00
2023-05-21T02:16:42.515Z,88.20
2023-05-21T02:19:11.584Z,86.60
2023-05-21T02:21:39.724Z,85.70
2023-05-21T02:24:08.234Z,85.80
2023-05-21T02:26:37.339Z,85.20
2023-05-21T02:29:05.678Z,85.20
2023-05-21T02:31:35.116Z,97.20
2023-05-21T02:34:03.332Z,84.70
2023-05-21T02:36:33.393Z,83.10
2023-05-21T02:39:01.673Z,84.50
2023-05-21T02:41:29.800Z,99.90
2023-05-21T02:43:57.851Z,90.50
2023-05-21T02:46:26.041Z,90.80
2023-05-21T02:48:55.602Z,90.40
2023-05-21T02:51:23.698Z,99.10
2023-05-21T02:53:51.782Z,91.20
2023-05-21T02:56:19.998Z,90.90
2023-05-21T02:58:48.061Z,91.60
2023-05-21T03:01:16.858Z,90.40
2023-05-21T03:03:45.063Z,90.20
2023-05-21T03:06:14.528Z,90.20
2023-05-21T03:08:42.625Z,90.50
2023-05-21T03:11:10.989Z,90.60
2023-05-21T03:13:39.124Z,90.40
2023-05-21T03:16:07.427Z,89.70
2023-05-21T03:18:35.518Z,88.40
2023-05-21T03:21:04.490Z,90.00
2023-05-21T03:23:34.885Z,90.20
2023-05-21T03:26:03.189Z,90.70
2023-05-21T03:28:31.289Z,90.80
2023-05-21T03:30:59.419Z,90.70
2023-05-21T03:33:27.521Z,90.80
2023-05-21T03:35:56.057Z,91.60
2023-05-21T03:38:24.132Z,91.20
2023-05-21T03:40:53.579Z,90.80
2023-05-21T03:43:21.651Z,91.10
2023-05-21T03:45:49.729Z,91.80
2023-05-21T03:48:18.162Z,93.20
2023-05-21T03:50:46.262Z,97.30
2023-05-21T03:53:14.891Z,98.40
2023-05-21T03:55:43.028Z,99.40
2023-05-21T03:58:12.636Z,99.90
2023-05-21T04:00:40.721Z,99.90
2023-05-21T04:03:09.650Z,99.90
2023-05-21T04:05:37.999Z,99.70
2023-05-21T04:08:06.874Z,99.50
2023-05-21T04:10:35.644Z,99.50
2023-05-21T04:13:03.811Z,99.40
2023-05-21T04:15:34.789Z,99.10
2023-05-21T04:18:03.102Z,98.60
2023-05-21T04:20:31.205Z,98.70
2023-05-21T04:22:59.305Z,98.50
2023-05-21T04:25:27.389Z,97.10
2023-05-21T04:27:55.458Z,96.50
2023-05-21T04:30:24.080Z,96.10
2023-05-21T04:32:54.788Z,96.70
2023-05-21T04:35:23.483Z,96.70
2023-05-21T04:37:52.094Z,96.50
2023-05-21T04:40:24.504Z,96.40
2023-05-21T04:42:52.712Z,96.60
2023-05-21T04:45:21.264Z,96.70
2023-05-21T04:47:49.406Z,96.00
2023-05-21T04:50:20.359Z,95.80
2023-05-21T04:52:48.525Z,95.80
2023-05-21T04:55:19.078Z,95.10
2023-05-21T04:57:47.240Z,94.90
2023-05-21T05:00:16.439Z,94.60
2023-05-21T05:02:44.614Z,93.40
2023-05-21T05:05:12.821Z,93.80
2023-05-21T05:07:42.265Z,93.30
2023-05-21T05:10:10.563Z,92.70
2023-05-21T05:15:08.114Z,91.30
2023-05-21T05:17:36.304Z,92.80
2023-05-21T05:20:05.143Z,93.00
2023-05-21T05:22:33.232Z,93.20
2023-05-21T05:25:02.733Z,93.20
2023-05-21T05:27:30.854Z,93.50
2023-05-21T05:29:58.937Z,92.90
2023-05-21T05:32:27.126Z,92.20
2023-05-21T05:34:55.256Z,92.20
2023-05-21T05:37:23.330Z,91.70
2023-05-21T05:39:51.420Z,91.90
2023-05-21T05:42:25.114Z,92.80
2023-05-21T05:44:53.197Z,92.80
2023-05-21T05:47:21.874Z,92.10
2023-05-21T05:49:49.975Z,91.00
2023-05-21T05:52:18.081Z,90.60
2023-05-21T05:54:46.194Z,90.10
2023-05-21T05:57:14.365Z,86.00
2023-05-21T05:59:43.796Z,85.70
2023-05-21T06:02:12.036Z,83.00
2023-05-21T06:04:40.123Z,83.90
2023-05-21T06:07:08.195Z,85.20
2023-05-21T06:09:36.548Z,84.60
2023-05-21T06:12:05.422Z,84.80
2023-05-21T06:14:33.536Z,83.30
2023-05-21T06:17:03.015Z,83.60
2023-05-21T06:19:31.240Z,83.30
2023-05-21T06:21:59.444Z,82.80
2023-05-21T06:24:27.521Z,83.20
2023-05-21T06:26:55.573Z,82.90
2023-05-21T06:29:23.644Z,81.40
2023-05-21T06:31:51.804Z,79.80
2023-05-21T06:34:21.290Z,78.00
2023-05-21T06:36:49.792Z,78.00
2023-05-21T06:39:17.918Z,76.30
2023-05-21T06:41:46.102Z,73.80
2023-05-21T06:44:15.714Z,74.20
2023-05-21T06:46:44.112Z,73.30
2023-05-21T06:49:14.430Z,73.20
2023-05-21T06:51:44.075Z,73.60
2023-05-21T06:54:12.134Z,73.10
2023-05-21T06:56:40.171Z,72.40
2023-05-21T06:59:08.344Z,72.50
2023-05-21T07:01:36.535Z,91.30
2023-05-21T07:04:04.790Z,70.40
2023-05-21T07:06:33.109Z,70.80
2023-05-21T07:09:02.827Z,70.80
2023-05-21T07:11:30.971Z,90.60
2023-05-21T07:14:00.515Z,71.70
2023-05-21T07:16:28.955Z,68.70
2023-05-21T07:18:57.091Z,64.20
2023-05-21T07:21:25.711Z,82.50
2023-05-21T07:23:53.784Z,65.10
2023-05-21T07:26:23.194Z,63.60
2023-05-21T07:28:51.271Z,61.90
2023-05-21T07:31:19.385Z,63.00
2023-05-21T07:33:47.538Z,60.40
2023-05-21T07:36:16.189Z,61.70
2023-05-21T07:38:44.829Z,61.10
2023-05-21T07:41:12.951Z,65.20
2023-05-21T07:43:42.378Z,64.30
2023-05-21T07:46:10.659Z,60.40
2023-05-21T07:48:38.726Z,60.80
2023-05-21T07:51:07.292Z,60.00
2023-05-21T07:53:35.428Z,59.90
2023-05-21T07:56:03.506Z,60.00
2023-05-21T07:58:32.559Z,59.70
2023-05-21T08:01:02.054Z,61.70
2023-05-21T08:03:31.292Z,58.60
2023-05-21T08:05:59.560Z,57.90
2023-05-21T08:08:27.682Z,64.90
2023-05-21T08:10:56.228Z,63.90
2023-05-21T08:13:24.302Z,63.60
2023-05-21T08:15:53.656Z,63.10
2023-05-21T08:18:23.803Z,61.90
2023-05-21T08:20:52.110Z,61.60
2023-05-21T08:23:20.240Z,61.00
2023-05-21T08:25:48.270Z,60.70
2023-05-21T08:28:16.347Z,62.50
2023-05-21T08:30:44.405Z,61.70
2023-05-21T08:33:12.565Z,60.80
2023-05-21T08:35:42.046Z,59.60
2023-05-21T08:38:10.133Z,58.40
2023-05-21T08:40:38.209Z,58.50
2023-05-21T08:43:06.394Z,57.00
2023-05-21T08:45:38.421Z,57.50
2023-05-21T08:48:07.687Z,57.50
2023-05-21T08:50:35.923Z,57.90
2023-05-21T08:55:54.090Z,50.70
2023-05-21T08:58:23.112Z,55.90
2023-05-21T09:00:51.468Z,56.40
2023-05-21T09:03:22.539Z,55.10
2023-05-21T09:08:28.015Z,52.30
2023-05-21T09:10:56.110Z,55.70
2023-05-21T09:13:26.147Z,54.30
2023-05-21T09:15:54.291Z,54.00
2023-05-21T09:18:22.408Z,54.50
2023-05-21T09:20:50.664Z,55.60
2023-05-21T09:23:20.936Z,54.40
2023-05-21T09:25:51.939Z,55.50
2023-05-21T09:28:20.993Z,54.70
2023-05-21T09:30:50.963Z,53.60
2023-05-21T09:33:27.054Z,54.20
2023-05-21T09:35:55.288Z,53.00
2023-05-21T09:38:26.022Z,53.50
2023-05-21T09:40:56.600Z,54.30
2023-05-21T09:43:24.740Z,52.50
2023-05-21T09:48:35.555Z,60.20
2023-05-21T09:51:11.470Z,60.30
2023-05-21T09:53:45.966Z,62.30
2023-05-21T10:06:10.596Z,58.40
2023-05-21T10:08:43.993Z,60.20
2023-05-21T10:11:13.757Z,60.00
2023-05-21T10:13:48.793Z,59.70
2023-05-21T10:28:45.371Z,60.60
2023-05-21T10:31:13.737Z,60.70
2023-05-21T10:33:43.459Z,60.20
2023-05-21T10:36:11.683Z,58.80
2023-05-21T10:38:40.780Z,58.30
2023-05-21T10:41:09.369Z,56.50
2023-05-21T10:43:57.663Z,55.70
2023-05-21T10:46:59.052Z,57.20
2023-05-21T10:57:43.968Z,53.40
2023-05-21T11:00:16.806Z,53.00
2023-05-21T11:02:45.739Z,53.50
2023-05-21T11:05:13.986Z,53.80
2023-05-21T11:07:57.678Z,53.10
2023-05-21T11:10:32.725Z,54.20
2023-05-21T11:13:12.039Z,52.50
2023-05-21T11:16:14.635Z,49.70
2023-05-21T11:19:02.487Z,48.60
2023-05-21T11:21:32.202Z,50.60
2023-05-21T11:24:10.980Z,49.80
2023-05-21T11:27:02.279Z,51.10
2023-05-21T11:29:40.522Z,46.30
2023-05-21T11:32:11.731Z,49.20
2023-05-21T11:34:41.955Z,50.60
2023-05-21T11:37:41.861Z,50.00
2023-05-21T11:40:21.010Z,48.10
2023-05-21T11:42:53.648Z,53.10
2023-05-21T11:45:23.031Z,34.90
2023-05-21T11:47:53.668Z,32.90
2023-05-21T11:50:22.006Z,32.60
2023-05-21T11:52:51.220Z,36.60
2023-05-21T11:55:23.608Z,32.20
2023-05-21T11:57:55.167Z,32.00
2023-05-21T12:00:23.618Z,31.00
2023-05-21T12:02:55.796Z,30.00
2023-05-21T12:05:26.393Z,29.80
2023-05-21T12:07:55.506Z,28.90
2023-05-21T12:10:24.313Z,29.80
2023-05-21T12:12:56.449Z,28.70
2023-05-21T12:15:27.035Z,28.40
2023-05-21T12:17:57.878Z,29.50
2023-05-21T14:33:24.976Z,40.20
2023-05-21T15:25:33.496Z,25.00
2023-05-21T15:28:01.665Z,25.90
2023-05-21T15:30:31.156Z,25.60
2023-05-21T15:32:59.228Z,29.20
2023-05-21T15:35:27.469Z,19.80
2023-05-21T15:37:55.623Z,22.00
2023-05-21T15:45:23.528Z,19.00
2023-05-21T15:47:53.069Z,23.80
2023-05-21T15:50:21.266Z,23.10
2023-05-21T15:52:51.012Z,24.20
2023-05-21T15:55:21.481Z,22.90
2023-05-21T15:57:49.531Z,22.50
2023-05-21T16:00:17.746Z,23.20
2023-05-21T16:02:46.028Z,22.00
2023-05-21T16:05:15.613Z,23.50
2023-05-21T16:07:44.457Z,23.00
2023-05-21T16:10:12.737Z,22.70
2023-05-21T16:15:09.944Z,23.80
2023-05-21T16:17:38.048Z,24.10
2023-05-21T16:20:07.464Z,27.50
2023-05-21T16:22:36.981Z,27.60
2023-05-21T16:25:05.744Z,27.30
2023-05-21T16:27:35.150Z,29.00
2023-05-21T16:30:03.305Z,27.30
2023-05-21T16:32:31.442Z,27.80
2023-05-21T16:34:59.620Z,27.90
2023-05-21T16:37:27.882Z,26.40
2023-05-21T16:39:57.307Z,26.60
2023-05-21T16:42:25.337Z,26.50
2023-05-21T16:44:53.466Z,26.00
2023-05-21T16:47:21.606Z,27.00
2023-05-21T16:49:49.808Z,28.80
2023-05-21T16:52:17.853Z,28.20
2023-05-21T16:54:48.753Z,29.40
2023-05-21T20:23:46.610Z,45.30
2023-05-21T20:26:15.290Z,46.30
2023-05-21T20:28:43.548Z,47.70
2023-05-21T20:33:41.039Z,49.30
2023-05-21T20:36:09.242Z,50.60
2023-05-21T20:38:38.669Z,51.50
2023-05-21T20:41:06.748Z,52.80
2023-05-21T20:43:37.334Z,53.00
2023-05-21T20:46:05.719Z,54.00
2023-05-21T20:48:33.977Z,55.20
2023-05-21T20:51:03.324Z,56.90
2023-05-21T20:53:31.439Z,56.50
2023-05-21T20:56:01.477Z,57.40
2023-05-21T20:58:29.671Z,56.20
2023-05-21T21:00:57.786Z,55.20
2023-05-21T21:03:26.045Z,54.80
2023-05-21T21:05:56.410Z,56.10
2023-05-21T21:08:24.497Z,56.90
2023-05-21T21:10:52.577Z,57.70
2023-05-21T21:13:22.031Z,55.80
2023-05-21T21:15:50.137Z,55.20
2023-05-21T21:18:18.295Z,55.20
2023-05-21T21:20:49.550Z,56.10
2023-05-21T21:23:17.920Z,57.00
2023-05-21T21:25:46.206Z,57.40
2023-05-21T21:28:14.265Z,56.50
2023-05-21T21:30:44.205Z,57.80
2023-05-21T21:33:14.317Z,57.70
2023-05-21T21:35:42.891Z,58.20
2023-05-21T21:38:10.992Z,59.30
2023-05-21T21:40:39.339Z,58.20
2023-05-21T21:43:07.628Z,58.20
2023-05-21T21:45:35.765Z,61.00
2023-05-21T21:48:05.833Z,60.60
2023-05-21T21:50:33.933Z,60.40
2023-05-21T21:53:03.491Z,59.30
2023-05-21T21:55:31.637Z,61.10
2023-05-21T21:57:59.729Z,62.70
2023-05-21T22:00:27.803Z,64.30
2023-05-21T22:02:56.709Z,64.50
2023-05-21T22:05:26.274Z,65.30
2023-05-21T22:07:54.329Z,64.30
2023-05-21T22:10:22.400Z,63.60
2023-05-21T22:12:50.530Z,63.90
2023-05-21T22:15:20.800Z,64.80
2023-05-21T22:17:50.073Z,64.20
2023-05-21T22:20:18.558Z,63.90
2023-05-21T22:22:48.135Z,65.30
2023-05-21T22:25:16.228Z,66.20
2023-05-21T22:27:44.492Z,67.20
2023-05-21T22:30:13.297Z,67.20
2023-05-21T22:32:41.756Z,66.30
2023-05-21T22:35:10.504Z,67.70
2023-05-21T22:37:38.600Z,67.50
2023-05-21T22:40:09.754Z,67.00
2023-05-21T22:42:38.063Z,62.60
2023-05-21T22:45:07.443Z,62.60
2023-05-21T22:47:37.159Z,63.80
2023-05-21T22:50:05.782Z,66.20
2023-05-21T22:52:34.420Z,66.70
2023-05-21T22:55:02.981Z,69.00
2023-05-21T22:57:32.427Z,69.00
2023-05-21T23:00:00.504Z,69.70
2023-05-21T23:02:29.746Z,68.30
2023-05-21T23:04:58.189Z,68.10
2023-05-21T23:07:26.345Z,64.60
2023-05-21T23:09:54.438Z,62.60
2023-05-21T23:12:22.564Z,62.40
2023-05-21T23:14:51.995Z,63.10
2023-05-21T23:17:20.087Z,66.50
2023-05-21T23:19:49.926Z,76.40
2023-05-21T23:22:18.061Z,78.40
2023-05-21T23:24:46.300Z,78.80
2023-05-21T23:27:14.377Z,79.10
2023-05-21T23:29:42.465Z,79.30
2023-05-21T23:32:12.435Z,77.80
2023-05-21T23:34:40.537Z,77.60
2023-05-21T23:37:08.599Z,76.50
2023-05-21T23:39:36.759Z,75.70
2023-05-21T23:42:05.173Z,74.80
2023-05-21T23:44:33.310Z,74.80
2023-05-21T23:47:01.410Z,76.50
2023-05-21T23:49:30.845Z,76.60
2023-05-21T23:51:59.792Z,74.80
2023-05-21T23:54:27.835Z,74.80
2023-05-21T23:56:55.920Z,75.40
2023-05-21T23:59:24.065Z,72.90
